Time;durP1;ratioP1;P1;durP2;ratioP2;P2;SDS_P1;SDS_P2;PMS_P1;PMS_P2;Temp;Humidity;BMP_temperature;BMP_pressure;BME280_temperature;BME280_humidity;BME280_pressure;Samples;Min_cycle;Max_cycle;Signal;HPM_P1;HPM_P2
2021/04/03 03:01:22;;;;;;;9.50;7.10;;;8.60;93.70;;;;;;5360758;23;88937;-84
2021/04/03 03:03:50;;;;;;;9.02;6.43;;;8.00;93.00;;;;;;4846487;29;86964;-84
2021/04/03 03:06:18;;;;;;;9.30;7.13;;;8.00;92.50;;;;;;4852054;29;88086;-84
2021/04/03 03:08:46;;;;;;;10.20;7.22;;;7.90;92.10;;;;;;4853414;29;87477;-86
2021/04/03 03:11:13;;;;;;;11.45;7.30;;;8.00;92.30;;;;;;4853066;29;87494;-86
2021/04/03 03:13:41;;;;;;;10.40;7.13;;;7.90;92.20;;;;;;4854699;29;87015;-84
2021/04/03 03:16:09;;;;;;;9.65;6.82;;;7.60;92.50;;;;;;4854321;29;86915;-84
2021/04/03 03:18:39;;;;;;;11.80;7.63;;;7.80;92.10;;;;;;4835554;29;86632;-86
2021/04/03 03:21:05;;;;;;;11.45;8.10;;;8.00;93.10;;;;;;4837860;29;87286;-85
2021/04/03 03:23:31;;;;;;;9.95;7.70;;;7.80;92.10;;;;;;4856869;29;86141;-85
2021/04/03 03:25:58;;;;;;;10.57;6.93;;;;;;;;;;4854109;29;86658;-84
2021/04/03 03:28:25;;;;;;;8.90;6.78;;;7.70;91.80;;;;;;4834269;29;87818;-84
2021/04/03 03:30:51;;;;;;;9.57;6.95;;;7.60;92.90;;;;;;4854653;29;87943;-85
2021/04/03 03:33:17;;;;;;;10.23;7.45;;;7.60;92.60;;;;;;4854423;29;86994;-84
2021/04/03 03:35:43;;;;;;;9.70;7.50;;;;;;;;;;4854323;29;86984;-84
2021/04/03 03:38:09;;;;;;;10.13;7.47;;;;;;;;;;4853374;29;87223;-84
2021/04/03 03:40:35;;;;;;;9.80;7.15;;;8.00;93.50;;;;;;4853740;29;86996;-84
2021/04/03 03:43:01;;;;;;;11.10;7.95;;;7.50;92.30;;;;;;4853794;29;86885;-84
2021/04/03 03:45:28;;;;;;;10.50;7.75;;;7.60;92.90;;;;;;4853790;29;87326;-85
2021/04/03 03:47:54;;;;;;;10.55;6.95;;;8.20;93.10;;;;;;4854416;29;86232;-84
2021/04/03 03:50:20;;;;;;;10.07;7.15;;;7.40;93.00;;;;;;4856795;29;87221;-86
2021/04/03 03:52:46;;;;;;;9.07;6.35;;;7.40;92.50;;;;;;4841962;29;86729;-85
2021/04/03 03:55:13;;;;;;;11.45;7.28;;;7.40;92.30;;;;;;4854080;29;87336;-83
2021/04/03 03:57:38;;;;;;;9.98;7.65;;;7.40;92.50;;;;;;4851687;29;86975;-86
2021/04/03 04:00:08;;;;;;;9.68;6.82;;;7.60;93.00;;;;;;4854044;29;86644;-83
2021/04/03 04:02:34;;;;;;;12.05;7.75;;;7.00;93.20;;;;;;4823588;29;87154;-83
2021/04/03 04:04:59;;;;;;;10.77;7.35;;;7.50;93.20;;;;;;4832465;29;87005;-84
2021/04/03 04:07:26;;;;;;;10.05;7.30;;;7.30;92.10;;;;;;4834214;29;87217;-85
2021/04/03 04:09:52;;;;;;;8.98;6.97;;;7.50;93.30;;;;;;4833860;29;87029;-83
2021/04/03 04:12:17;;;;;;;10.25;6.38;;;7.30;92.10;;;;;;4834700;29;86075;-84
2021/04/03 04:14:43;;;;;;;9.50;7.63;;;7.30;92.80;;;;;;4834804;29;86947;-83
2021/04/03 04:17:08;;;;;;;10.02;6.20;;;7.20;92.00;;;;;;4834516;29;86572;-83
2021/04/03 04:19:35;;;;;;;11.98;8.18;;;;;;;;;;4834258;29;87566;-83
2021/04/03 04:22:02;;;;;;;8.63;6.30;;;7.30;91.10;;;;;;4833862;29;87255;-83
2021/04/03 04:24:28;;;;;;;9.82;6.82;;;7.10;92.10;;;;;;4834620;29;87039;-83
2021/04/03 04:26:53;;;;;;;13.95;7.28;;;6.90;91.60;;;;;;4834467;29;87636;-83
2021/04/03 04:29:19;;;;;;;8.55;6.80;;;6.90;91.60;;;;;;4832667;29;88013;-86
2021/04/03 04:31:45;;;;;;;8.60;6.53;;;;;;;;;;4836522;29;86251;-83
2021/04/03 04:34:11;;;;;;;9.60;7.20;;;;;;;;;;4833654;29;87023;-84
2021/04/03 04:36:37;;;;;;;10.68;7.57;;;7.00;91.10;;;;;;4834719;29;86255;-84
2021/04/03 04:39:03;;;;;;;11.45;7.75;;;6.70;93.20;;;;;;4834739;29;86962;-84
2021/04/03 04:41:28;;;;;;;11.55;7.20;;;6.90;91.80;;;;;;4833638;29;86948;-84
2021/04/03 04:43:54;;;;;;;11.93;7.00;;;7.30;92.70;;;;;;4836456;29;87932;-83
2021/04/03 04:46:20;;;;;;;9.55;5.78;;;6.90;91.70;;;;;;4841287;29;87051;-83
2021/04/03 04:48:46;;;;;;;12.68;7.10;;;7.00;91.80;;;;;;4844242;29;87033;-83
2021/04/03 04:51:11;;;;;;;10.68;6.05;;;7.00;91.50;;;;;;4843955;29;86901;-83
2021/04/03 04:53:37;;;;;;;11.65;7.15;;;7.10;92.90;;;;;;4846212;29;86268;-84
2021/04/03 04:56:03;;;;;;;10.88;6.93;;;7.10;92.10;;;;;;4845564;29;87682;-83
2021/04/03 04:58:29;;;;;;;8.52;6.82;;;;;;;;;;4844966;29;86290;-84
2021/04/03 05:00:55;;;;;;;9.00;6.43;;;;;;;;;;4840437;29;86076;-84
2021/04/03 05:03:21;;;;;;;11.13;7.88;;;7.00;92.90;;;;;;4838155;29;87039;-84
2021/04/03 05:05:46;;;;;;;11.02;6.40;;;6.90;91.60;;;;;;4836945;29;87026;-84
2021/04/03 05:08:12;;;;;;;7.78;5.90;;;6.90;91.50;;;;;;4837346;29;87554;-84
2021/04/03 05:10:38;;;;;;;13.38;7.00;;;;;;;;;;4839174;29;87326;-85
2021/04/03 05:13:04;;;;;;;11.15;7.35;;;6.70;91.60;;;;;;4844441;29;86967;-84
2021/04/03 05:15:30;;;;;;;11.68;5.75;;;6.80;92.00;;;;;;4844523;29;88232;-84
2021/04/03 05:17:57;;;;;;;11.70;6.70;;;;;;;;;;4845731;29;88517;-84
2021/04/03 05:20:23;;;;;;;10.65;6.07;;;6.70;91.60;;;;;;4839209;29;86683;-84
2021/04/03 05:22:49;;;;;;;10.48;6.63;;;7.30;95.10;;;;;;4843487;29;86691;-85
2021/04/03 05:25:15;;;;;;;9.80;7.20;;;6.70;92.10;;;;;;4843493;29;86396;-85
2021/04/03 05:27:41;;;;;;;10.00;6.80;;;6.70;92.20;;;;;;4843437;29;86691;-84
2021/04/03 05:30:09;;;;;;;8.07;5.82;;;6.70;92.00;;;;;;4846806;29;86944;-84
2021/04/03 05:32:35;;;;;;;9.40;6.22;;;6.90;93.40;;;;;;4846156;29;87657;-85
2021/04/03 05:35:01;;;;;;;9.77;6.15;;;;;;;;;;4839164;29;88615;-85
2021/04/03 05:37:27;;;;;;;9.35;5.88;;;6.80;91.80;;;;;;4835848;29;86890;-84
2021/04/03 05:39:53;;;;;;;12.95;6.63;;;7.10;93.30;;;;;;4837356;29;86459;-85
2021/04/03 05:42:19;;;;;;;11.05;6.03;;;6.90;91.40;;;;;;4836457;29;86947;-85
2021/04/03 05:44:46;;;;;;;8.40;5.70;;;7.00;91.50;;;;;;4835719;29;87325;-85
2021/04/03 05:47:12;;;;;;;9.85;6.18;;;7.50;91.70;;;;;;4832071;29;86588;-85
2021/04/03 05:49:40;;;;;;;10.10;6.88;;;7.60;92.90;;;;;;4836785;29;86155;-85
2021/04/03 05:52:06;;;;;;;9.05;5.65;;;7.10;91.20;;;;;;4835676;29;86676;-86
2021/04/03 05:54:35;;;;;;;8.68;6.55;;;7.20;90.90;;;;;;4834801;29;87307;-86
2021/04/03 05:57:02;;;;;;;7.82;6.55;;;;;;;;;;4832358;29;88082;-82
2021/04/03 05:59:28;;;;;;;11.77;6.30;;;;;;;;;;4832678;29;88753;-84
2021/04/03 06:01:53;;;;;;;9.15;5.22;;;7.20;91.00;;;;;;4829687;29;86971;-84
2021/04/03 06:04:19;;;;;;;6.70;5.50;;;7.20;91.70;;;;;;4833147;29;87238;-82
2021/04/03 06:06:46;;;;;;;8.80;5.45;;;7.30;91.40;;;;;;4830733;29;87358;-84
2021/04/03 06:09:12;;;;;;;13.77;6.85;;;7.20;92.60;;;;;;4833585;29;86957;-84
2021/04/03 06:11:49;;;;;;;11.63;5.88;;;7.30;92.80;;;;;;4833462;29;87052;-84
2021/04/03 06:14:16;;;;;;;11.75;6.25;;;7.30;91.10;;;;;;4831813;29;86606;-84
2021/04/03 06:16:52;;;;;;;11.48;6.82;;;7.10;92.80;;;;;;4834674;29;86963;-83
2021/04/03 06:19:23;;;;;;;12.98;7.68;;;7.00;92.00;;;;;;4834559;29;86900;-84
2021/04/03 06:22:01;;;;;;;9.82;7.13;;;7.30;92.60;;;;;;4831855;29;88019;-84
2021/04/03 06:24:31;;;;;;;11.38;5.38;;;7.70;90.20;;;;;;4833396;29;88108;-84
2021/04/03 06:26:59;;;;;;;9.63;6.40;;;7.70;89.70;;;;;;4831530;29;87184;-83
2021/04/03 06:29:45;;;;;;;10.88;5.13;;;7.70;89.20;;;;;;4832302;29;87066;-83
2021/04/03 06:32:33;;;;;;;8.30;6.07;;;7.70;90.40;;;;;;4831077;29;87171;-84
2021/04/03 06:34:59;;;;;;;9.20;6.30;;;7.70;90.10;;;;;;4829157;29;88131;-83
2021/04/03 06:37:35;;;;;;;12.88;6.70;;;8.20;90.30;;;;;;4830170;29;87396;-84
2021/04/03 06:40:09;;;;;;;9.18;6.65;;;8.10;90.70;;;;;;4829939;29;86472;-83
2021/04/03 06:42:57;;;;;;;6.97;5.32;;;7.90;87.00;;;;;;4830024;29;87099;-82
2021/04/03 06:45:24;;;;;;;8.68;5.93;;;;;;;;;;4826938;29;87334;-82
2021/04/03 06:47:55;;;;;;;7.55;6.28;;;8.00;86.50;;;;;;4831084;29;88007;-83
2021/04/03 06:50:22;;;;;;;8.45;6.35;;;8.00;90.00;;;;;;4831820;29;86838;-83
2021/04/03 06:52:48;;;;;;;9.68;6.10;;;8.60;89.10;;;;;;4829517;29;87080;-83
2021/04/03 06:55:17;;;;;;;12.15;7.13;;;8.20;89.00;;;;;;4825644;29;87604;-82
2021/04/03 06:57:45;;;;;;;13.02;7.03;;;8.20;87.40;;;;;;4831303;29;87311;-83
2021/04/03 07:00:13;;;;;;;10.43;6.50;;;8.30;87.90;;;;;;4811636;29;87000;-83
2021/04/03 07:02:52;;;;;;;9.80;5.88;;;8.20;85.10;;;;;;4830450;29;87193;-84
2021/04/03 07:05:20;;;;;;;11.38;6.60;;;8.10;86.10;;;;;;4828607;29;87609;-81
2021/04/03 07:07:47;;;;;;;11.25;7.10;;;8.10;87.50;;;;;;4829041;29;86774;-83
2021/04/03 07:10:14;;;;;;;13.27;7.57;;;8.20;84.20;;;;;;4830306;29;86573;-89
2021/04/03 07:12:41;;;;;;;13.93;7.82;;;8.20;84.60;;;;;;4828351;29;87783;-87
2021/04/03 07:15:08;;;;;;;9.80;7.22;;;8.20;85.60;;;;;;4830771;29;86984;-88
2021/04/03 07:17:42;;;;;;;13.55;7.68;;;8.20;83.50;;;;;;4831234;29;86950;-91
2021/04/03 07:20:13;;;;;;;11.95;6.90;;;8.30;83.50;;;;;;4815246;29;86949;-90
2021/04/03 07:23:06;;;;;;;11.30;7.10;;;8.20;83.20;;;;;;4831590;29;86523;-93
2021/04/03 07:25:45;;;;;;;11.70;6.47;;;8.20;83.00;;;;;;4820420;29;89055;-92
2021/04/03 07:28:11;;;;;;;10.40;6.55;;;;;;;;;;4836581;29;89927;-90
2021/04/03 07:30:38;;;;;;;10.38;6.40;;;;;;;;;;4821524;29;86204;-87
2021/04/03 07:33:14;;;;;;;7.18;6.28;;;8.40;84.20;;;;;;4813597;29;87835;-86
2021/04/03 07:36:00;;;;;;;10.30;6.68;;;9.00;85.40;;;;;;4828458;29;87396;-86
2021/04/03 07:38:37;;;;;;;10.25;6.43;;;8.50;82.30;;;;;;4827444;29;88009;-88
2021/04/03 07:41:16;;;;;;;8.77;6.38;;;8.30;86.80;;;;;;4831039;29;87042;-89
2021/04/03 07:43:43;;;;;;;9.98;7.15;;;8.70;82.00;;;;;;4830428;29;87037;-88
2021/04/03 07:46:13;;;;;;;11.80;6.47;;;8.90;81.30;;;;;;4809519;29;88102;-87
2021/04/03 07:48:48;;;;;;;10.07;5.82;;;9.10;81.40;;;;;;4831927;29;88543;-86
2021/04/03 07:51:23;;;;;;;8.38;6.20;;;8.80;82.00;;;;;;4837153;29;86946;-86
2021/04/03 07:53:50;;;;;;;7.97;4.90;;;9.00;79.80;;;;;;4811488;29;87166;-86
2021/04/03 07:56:23;;;;;;;9.05;6.47;;;9.50;80.50;;;;;;4829100;29;86288;-86
2021/04/03 07:58:49;;;;;;;7.60;5.95;;;;;;;;;;4834326;29;87018;-86
2021/04/03 08:01:16;;;;;;;9.95;6.13;;;9.10;76.40;;;;;;4833196;29;87028;-86
2021/04/03 08:03:42;;;;;;;13.15;6.47;;;;;;;;;;4834577;29;88029;-86
2021/04/03 08:06:09;;;;;;;9.25;5.95;;;9.20;75.80;;;;;;4833406;29;87674;-86
2021/04/03 08:08:40;;;;;;;6.40;4.90;;;9.20;76.60;;;;;;4835151;29;87844;-86
2021/04/03 08:11:07;;;;;;;;;;;9.20;75.90;;;;;;4836561;29;87051;-87
2021/04/03 08:13:37;;;;;;;6.90;6.18;;;9.40;75.40;;;;;;4834756;29;86922;-86
2021/04/03 08:16:05;;;;;;;6.78;5.50;;;9.40;75.90;;;;;;4815490;29;89739;-86
2021/04/03 08:18:33;;;;;;;6.78;4.45;;;9.60;73.60;;;;;;4831989;29;87512;-87
2021/04/03 08:20:59;;;;;;;8.60;5.63;;;9.80;73.40;;;;;;4828538;29;86029;-85
2021/04/03 08:23:52;;;;;;;8.38;5.45;;;10.00;73.30;;;;;;4836615;29;87146;-85
2021/04/03 08:26:23;;;;;;;7.70;6.10;;;10.30;73.40;;;;;;4834499;29;86972;-86
2021/04/03 08:28:49;;;;;;;7.32;5.03;;;10.70;70.30;;;;;;4836865;29;87795;-85
2021/04/03 08:31:20;;;;;;;8.82;6.10;;;11.10;69.30;;;;;;4839188;29;86935;-85
2021/04/03 08:33:48;;;;;;;5.30;3.83;;;11.50;68.10;;;;;;4836396;29;86941;-85
2021/04/03 08:36:18;;;;;;;5.85;5.30;;;13.30;62.50;;;;;;4836070;29;88037;-85
2021/04/03 08:38:44;;;;;;;7.32;6.07;;;15.70;56.70;;;;;;4836680;29;87523;-86
2021/04/03 08:41:15;;;;;;;10.10;6.68;;;17.80;51.00;;;;;;4840861;29;86605;-85
2021/04/03 08:43:41;;;;;;;6.63;5.68;;;;;;;;;;4832275;29;86888;-86
2021/04/03 08:46:11;;;;;;;6.57;5.50;;;19.40;45.60;;;;;;4836819;29;87697;-88
2021/04/03 08:48:39;;;;;;;5.97;5.47;;;22.10;40.10;;;;;;4829725;29;86720;-90
2021/04/03 08:51:06;;;;;;;6.97;5.50;;;22.10;40.20;;;;;;4807664;29;86988;-91
2021/04/03 08:53:48;;;;;;;7.95;5.15;;;24.50;35.50;;;;;;4832508;29;87256;-91
2021/04/03 08:56:25;;;;;;;5.88;5.30;;;24.90;33.20;;;;;;4814197;29;89357;-91
2021/04/03 08:58:55;;;;;;;5.88;5.28;;;26.40;31.70;;;;;;4816150;29;88024;-89
2021/04/03 09:01:21;;;;;;;8.27;5.85;;;27.10;32.00;;;;;;4835459;29;86712;-90
2021/04/03 09:03:51;;;;;;;5.07;4.68;;;;;;;;;;4833881;29;87354;-90
2021/04/03 09:06:50;;;;;;;5.55;5.07;;;30.70;28.10;;;;;;4833456;29;87762;-89
2021/04/03 09:09:16;;;;;;;5.38;4.82;;;;;;;;;;4832606;29;87442;-90
2021/04/03 09:11:59;;;;;;;5.60;4.38;;;31.20;27.40;;;;;;4834038;29;86014;-88
2021/04/03 09:14:25;;;;;;;6.50;6.00;;;;;;;;;;4815439;29;86921;-90
2021/04/03 09:16:51;;;;;;;5.93;5.50;;;32.60;26.10;;;;;;4831839;29;87783;-90
2021/04/03 09:19:34;;;;;;;6.15;5.53;;;32.50;26.30;;;;;;4832215;29;87339;-90
2021/04/03 09:22:11;;;;;;;5.40;5.00;;;32.20;25.90;;;;;;4827357;29;86677;-90
2021/04/03 09:24:37;;;;;;;5.80;5.20;;;;;;;;;;4815956;29;87134;-89
2021/04/03 09:27:10;;;;;;;6.30;5.65;;;33.10;24.70;;;;;;4838843;29;88794;-91
2021/04/03 09:29:36;;;;;;;6.03;5.50;;;33.20;25.00;;;;;;4830385;29;87411;-92
2021/04/03 09:32:08;;;;;;;6.00;5.50;;;33.80;25.20;;;;;;4810169;29;86581;-91
2021/04/03 09:34:34;;;;;;;6.55;5.93;;;;;;;;;;4834194;29;86903;-92
2021/04/03 09:37:12;;;;;;;5.95;5.35;;;35.00;23.90;;;;;;4815861;29;87260;-88
2021/04/03 09:39:43;;;;;;;6.53;5.32;;;35.90;23.40;;;;;;4831746;29;87198;-91
2021/04/03 09:42:35;;;;;;;5.50;5.10;;;36.20;23.30;;;;;;4832584;29;86891;-91
2021/04/03 09:45:06;;;;;;;5.80;5.30;;;34.30;23.40;;;;;;4829292;29;88037;-89
2021/04/03 09:47:32;;;;;;;6.18;5.22;;;30.20;24.90;;;;;;4836101;29;87833;-88
2021/04/03 09:49:58;;;;;;;5.88;5.35;;;28.10;25.70;;;;;;4832610;29;90032;-87
2021/04/03 09:52:28;;;;;;;5.78;5.25;;;26.40;26.60;;;;;;4832345;29;86978;-90
2021/04/03 09:54:53;;;;;;;;;;;24.40;27.70;;;;;;4839204;29;86571;-89
2021/04/03 09:57:20;;;;;;;6.05;5.45;;;23.20;28.70;;;;;;4826793;29;89421;-89
2021/04/03 09:59:46;;;;;;;6.88;5.53;;;22.40;29.30;;;;;;4835351;29;86868;-87
2021/04/03 10:02:11;;;;;;;7.85;5.13;;;21.60;30.20;;;;;;4832836;29;85988;-87
2021/04/03 10:04:38;;;;;;;5.15;4.65;;;21.50;30.70;;;;;;4811766;29;87301;-87
2021/04/03 10:07:04;;;;;;;6.13;4.85;;;22.00;30.80;;;;;;4835697;29;86946;-87
2021/04/03 10:09:29;;;;;;;5.60;5.00;;;21.80;30.60;;;;;;4853419;29;87908;-89
2021/04/03 10:11:55;;;;;;;5.55;5.10;;;21.30;31.10;;;;;;4824050;29;86509;-87
2021/04/03 10:14:22;;;;;;;5.40;4.90;;;20.90;31.60;;;;;;4831432;29;87006;-87
2021/04/03 10:16:55;;;;;;;4.97;4.57;;;20.10;32.90;;;;;;4837748;29;87018;-89
2021/04/03 10:19:21;;;;;;;6.47;5.20;;;19.50;33.60;;;;;;4819305;29;86942;-90
2021/04/03 10:21:47;;;;;;;5.50;5.00;;;18.90;34.00;;;;;;4832545;29;87110;-88
2021/04/03 10:24:12;;;;;;;6.65;4.00;;;18.10;35.40;;;;;;4830860;29;87029;-86
2021/04/03 10:26:38;;;;;;;8.00;4.78;;;17.40;36.30;;;;;;4830206;29;86523;-85
2021/04/03 10:29:04;;;;;;;6.03;5.32;;;16.90;36.80;;;;;;4824827;29;87069;-91
2021/04/03 10:31:30;;;;;;;5.82;4.47;;;;;;;;;;4803007;29;86938;-91
2021/04/03 10:33:59;;;;;;;8.68;6.13;;;15.40;39.00;;;;;;4815270;29;87426;-92
2021/04/03 10:36:25;;;;;;;5.72;4.53;;;;;;;;;;4815584;29;88428;-91
2021/04/03 10:38:51;;;;;;;8.95;4.90;;;;;;;;;;4828397;29;87786;-91
2021/04/03 10:41:17;;;;;;;4.78;4.35;;;;;;;;;;4817142;29;87052;-89
2021/04/03 10:43:43;;;;;;;5.35;4.80;;;;;;;;;;4822798;29;87026;-89
2021/04/03 10:46:10;;;;;;;9.20;5.05;;;13.90;41.80;;;;;;4823593;29;88611;-88
2021/04/03 10:48:37;;;;;;;4.80;4.38;;;13.60;42.90;;;;;;4832290;29;86889;-86
2021/04/03 10:51:05;;;;;;;5.45;4.95;;;13.30;43.60;;;;;;4825339;29;86079;-90
2021/04/03 10:53:31;;;;;;;7.63;6.13;;;12.90;43.50;;;;;;4826922;29;87048;-85
2021/04/03 10:55:57;;;;;;;4.97;4.57;;;12.90;43.80;;;;;;4823745;29;87670;-87
2021/04/03 10:58:23;;;;;;;6.22;5.10;;;12.80;44.00;;;;;;4825654;29;87995;-87
2021/04/03 11:00:49;;;;;;;5.85;5.32;;;12.70;45.10;;;;;;4830372;29;86675;-86
2021/04/03 11:03:16;;;;;;;6.00;4.25;;;12.60;46.50;;;;;;4799373;29;86825;-87
2021/04/03 11:05:42;;;;;;;6.45;4.60;;;12.60;45.70;;;;;;4829251;29;87934;-91
2021/04/03 11:08:08;;;;;;;6.32;5.32;;;12.20;45.00;;;;;;4831209;29;88989;-91
2021/04/03 11:10:33;;;;;;;6.20;5.30;;;12.30;45.20;;;;;;4799443;29;87439;-87
2021/04/03 11:12:59;;;;;;;6.28;5.00;;;12.30;45.90;;;;;;4829915;29;86992;-88
2021/04/03 11:15:25;;;;;;;5.65;5.07;;;12.00;45.90;;;;;;4830763;29;86374;-87
2021/04/03 11:17:52;;;;;;;9.43;5.20;;;;;;;;;;4825859;29;87001;-89
2021/04/03 11:20:20;;;;;;;5.68;4.75;;;11.30;47.00;;;;;;4832620;29;86460;-87
2021/04/03 11:22:46;;;;;;;8.05;5.50;;;11.90;47.30;;;;;;4832525;29;87838;-85
2021/04/03 11:25:12;;;;;;;6.45;4.57;;;11.50;47.30;;;;;;4831107;29;87430;-85
2021/04/03 11:27:38;;;;;;;5.70;4.70;;;11.40;47.00;;;;;;4833987;29;87338;-85
2021/04/03 11:30:14;;;;;;;6.45;5.28;;;11.80;47.10;;;;;;4825083;29;86998;-88
2021/04/03 11:32:45;;;;;;;6.80;4.82;;;11.50;47.30;;;;;;4826070;29;86604;-90
2021/04/03 11:35:11;;;;;;;;;;;11.50;47.40;;;;;;4815361;29;87293;-89
2021/04/03 11:37:37;;;;;;;8.25;4.90;;;11.50;47.40;;;;;;4817063;29;87286;-87
2021/04/03 11:40:05;;;;;;;7.50;6.28;;;11.30;47.70;;;;;;4831312;29;86346;-86
2021/04/03 11:42:31;;;;;;;7.10;4.60;;;11.50;47.60;;;;;;4845949;29;86946;-86
2021/04/03 11:44:56;;;;;;;7.45;5.00;;;11.60;47.60;;;;;;4844724;29;87085;-85
2021/04/03 11:47:23;;;;;;;7.22;5.82;;;;;;;;;;4825923;29;88205;-85
2021/04/03 11:49:53;;;;;;;7.38;5.45;;;12.10;46.70;;;;;;4837187;29;87062;-86
2021/04/03 11:52:19;;;;;;;5.70;4.82;;;12.30;47.20;;;;;;4834431;29;87172;-85
2021/04/03 11:54:45;;;;;;;6.85;5.40;;;12.40;47.60;;;;;;4830306;29;87972;-85
2021/04/03 11:57:11;;;;;;;7.10;4.78;;;12.50;46.50;;;;;;4840659;29;87356;-84
2021/04/03 11:59:36;;;;;;;6.07;5.50;;;12.50;47.00;;;;;;4845282;29;86821;-84
2021/04/03 12:02:02;;;;;;;6.75;5.10;;;11.90;45.90;;;;;;4845740;29;86989;-84
2021/04/03 12:04:31;;;;;;;6.85;5.32;;;12.00;45.90;;;;;;4832949;29;86627;-84
2021/04/03 12:06:57;;;;;;;7.97;4.90;;;12.10;46.20;;;;;;4836736;29;86949;-84
2021/04/03 12:09:22;;;;;;;8.93;5.10;;;12.20;46.20;;;;;;4837706;29;87002;-84
2021/04/03 12:11:48;;;;;;;5.95;5.30;;;12.60;44.70;;;;;;4837510;29;88006;-83
2021/04/03 12:14:14;;;;;;;6.82;5.47;;;12.80;44.40;;;;;;4835953;29;87050;-84
2021/04/03 12:16:39;;;;;;;5.63;5.13;;;12.60;43.90;;;;;;4837922;29;87180;-84
2021/04/03 12:19:06;;;;;;;7.60;5.57;;;;;;;;;;4840335;29;87121;-85
2021/04/03 12:21:31;;;;;;;6.50;5.22;;;13.80;42.90;;;;;;4839632;29;86636;-85
2021/04/03 12:23:57;;;;;;;6.00;5.25;;;;;;;;;;4837780;29;88298;-85
2021/04/03 12:26:23;;;;;;;6.20;5.60;;;15.90;41.10;;;;;;4836136;29;86879;-86
2021/04/03 12:28:50;;;;;;;5.95;5.45;;;;;;;;;;4838248;29;86322;-86
2021/04/03 12:31:16;;;;;;;5.18;4.68;;;17.80;38.10;;;;;;4835687;29;87124;-86
2021/04/03 12:33:41;;;;;;;7.78;4.82;;;17.90;38.50;;;;;;4839346;29;86933;-86
2021/04/03 12:36:08;;;;;;;6.95;4.70;;;19.90;36.60;;;;;;4845137;29;87858;-86
2021/04/03 12:38:34;;;;;;;5.25;4.45;;;22.10;33.50;;;;;;4830787;29;86932;-86
2021/04/03 12:41:01;;;;;;;5.20;4.70;;;24.30;31.70;;;;;;4815733;29;86933;-86
2021/04/03 12:43:27;;;;;;;5.68;5.07;;;26.10;29.50;;;;;;4796875;29;88373;-86
2021/04/03 12:45:53;;;;;;;5.43;4.93;;;27.10;28.20;;;;;;4845497;29;86307;-86
2021/04/03 12:48:19;;;;;;;5.20;4.80;;;28.20;27.30;;;;;;4835681;29;86837;-88
2021/04/03 12:50:45;;;;;;;5.07;4.68;;;29.60;26.80;;;;;;4817022;29;86982;-89
2021/04/03 12:53:11;;;;;;;5.65;5.18;;;30.60;25.40;;;;;;4816884;29;87461;-87
2021/04/03 12:55:38;;;;;;;5.97;5.47;;;30.70;25.00;;;;;;4832397;29;86587;-87
2021/04/03 12:58:03;;;;;;;5.45;4.95;;;30.30;25.30;;;;;;4832989;29;87371;-88
2021/04/03 13:00:29;;;;;;;5.97;5.47;;;29.60;25.10;;;;;;4831938;29;88169;-87
2021/04/03 13:02:55;;;;;;;5.55;5.15;;;29.50;25.10;;;;;;4832877;29;87347;-86
2021/04/03 13:05:21;;;;;;;4.72;4.32;;;29.60;24.70;;;;;;4832212;29;87216;-86
2021/04/03 13:07:46;;;;;;;5.68;5.28;;;29.70;25.10;;;;;;4829634;29;87300;-86
2021/04/03 13:10:14;;;;;;;6.45;5.43;;;30.10;24.30;;;;;;4824587;29;87088;-86
2021/04/03 13:12:39;;;;;;;5.57;5.18;;;30.50;24.30;;;;;;4825111;29;87680;-86
2021/04/03 13:15:07;;;;;;;5.82;5.32;;;30.80;25.10;;;;;;4830303;29;87962;-87
2021/04/03 13:17:33;;;;;;;6.05;5.35;;;30.90;24.30;;;;;;4835310;29;86400;-87
2021/04/03 13:19:58;;;;;;;5.63;5.13;;;29.50;24.30;;;;;;4830189;29;87412;-86
2021/04/03 13:22:24;;;;;;;5.50;5.00;;;28.10;24.70;;;;;;4843631;29;87270;-87
2021/04/03 13:24:50;;;;;;;5.95;5.35;;;27.00;25.30;;;;;;4835646;29;87941;-87
2021/04/03 13:27:15;;;;;;;5.40;4.90;;;25.90;25.60;;;;;;4832267;29;87145;-86
2021/04/03 13:29:41;;;;;;;5.18;4.70;;;24.90;25.80;;;;;;4829076;29;87031;-88
2021/04/03 13:32:07;;;;;;;5.88;5.38;;;24.00;27.10;;;;;;4835307;29;88537;-84
2021/04/03 13:34:33;;;;;;;5.95;5.40;;;23.40;27.50;;;;;;4833746;29;88129;-84
2021/04/03 13:36:58;;;;;;;5.43;5.03;;;22.90;27.70;;;;;;4832298;29;86970;-84
2021/04/03 13:39:24;;;;;;;5.78;5.00;;;22.70;28.20;;;;;;4836376;29;86948;-85
2021/04/03 13:41:50;;;;;;;5.43;4.95;;;22.80;28.10;;;;;;4850223;29;86710;-85
2021/04/03 13:44:16;;;;;;;5.47;4.95;;;22.80;27.40;;;;;;4849602;29;86686;-85
2021/04/03 13:46:41;;;;;;;5.10;4.60;;;22.80;28.00;;;;;;4843293;29;87294;-85
2021/04/03 13:49:07;;;;;;;5.15;4.65;;;22.70;28.10;;;;;;4836538;29;87686;-84
2021/04/03 13:51:33;;;;;;;5.03;4.63;;;22.20;28.90;;;;;;4827099;29;88377;-85
2021/04/03 13:53:58;;;;;;;5.40;4.60;;;22.30;28.90;;;;;;4832915;29;87017;-85
2021/04/03 13:56:24;;;;;;;5.35;4.95;;;22.10;28.50;;;;;;4833741;29;86976;-86
2021/04/03 13:58:50;;;;;;;5.30;4.80;;;21.40;28.90;;;;;;4833964;29;86684;-85
2021/04/03 14:01:16;;;;;;;5.00;4.60;;;20.70;29.60;;;;;;4820798;29;87356;-84
2021/04/03 14:03:41;;;;;;;5.28;4.75;;;20.50;29.90;;;;;;4834740;29;87842;-84
2021/04/03 14:06:07;;;;;;;5.80;5.25;;;20.20;30.40;;;;;;4842932;29;86218;-84
2021/04/03 14:08:35;;;;;;;5.95;5.10;;;19.90;30.20;;;;;;4836275;29;87095;-84
2021/04/03 14:11:01;;;;;;;4.70;3.63;;;19.40;30.80;;;;;;4834186;29;87053;-85
2021/04/03 14:13:27;;;;;;;5.70;5.20;;;19.00;31.30;;;;;;4835024;29;88371;-85
2021/04/03 14:15:53;;;;;;;5.47;4.65;;;18.60;32.10;;;;;;4832316;29;87010;-85
2021/04/03 14:18:19;;;;;;;4.97;4.57;;;17.90;32.60;;;;;;4815174;29;87079;-84
2021/04/03 14:20:46;;;;;;;5.40;4.90;;;17.10;34.70;;;;;;4820515;29;87259;-84
2021/04/03 14:23:12;;;;;;;6.43;5.32;;;16.80;34.50;;;;;;4834215;29;87067;-86
2021/04/03 14:25:37;;;;;;;6.63;5.10;;;16.40;34.70;;;;;;4833862;29;87002;-86
2021/04/03 14:28:03;;;;;;;6.63;4.65;;;16.20;35.20;;;;;;4837735;29;87042;-85
2021/04/03 14:30:29;;;;;;;5.20;4.70;;;15.70;34.80;;;;;;4832417;29;87185;-85
2021/04/03 14:32:56;;;;;;;5.82;4.90;;;15.90;34.90;;;;;;4832721;29;86964;-85
2021/04/03 14:35:21;;;;;;;7.25;5.15;;;15.70;35.30;;;;;;4834500;29;87036;-85
2021/04/03 14:37:47;;;;;;;4.90;4.43;;;15.80;35.80;;;;;;4817777;29;87991;-86
2021/04/03 14:40:13;;;;;;;4.68;4.28;;;15.90;35.60;;;;;;4826244;29;87199;-85
2021/04/03 14:42:39;;;;;;;5.45;4.57;;;16.30;35.40;;;;;;4829073;29;88136;-86
2021/04/03 14:45:05;;;;;;;5.47;4.60;;;16.70;34.80;;;;;;4828512;29;86877;-85
2021/04/03 14:47:32;;;;;;;6.03;4.80;;;16.90;34.20;;;;;;4827832;29;87221;-86
2021/04/03 14:49:58;;;;;;;5.72;4.40;;;16.90;34.40;;;;;;4830714;29;88367;-86
2021/04/03 14:52:25;;;;;;;4.88;4.22;;;17.00;34.30;;;;;;4830410;29;86853;-86
2021/04/03 14:54:52;;;;;;;4.80;4.30;;;17.10;34.60;;;;;;4828045;29;86495;-86
2021/04/03 14:57:18;;;;;;;5.63;4.68;;;17.20;34.50;;;;;;4829098;29;87678;-85
2021/04/03 14:59:43;;;;;;;6.70;5.32;;;17.00;34.70;;;;;;4825137;29;87144;-86
2021/04/03 15:02:09;;;;;;;6.85;5.00;;;16.90;34.60;;;;;;4828242;29;87756;-86
2021/04/03 15:04:35;;;;;;;4.88;4.40;;;16.60;34.30;;;;;;4831001;29;87194;-85
2021/04/03 15:07:00;;;;;;;5.03;4.63;;;16.60;34.70;;;;;;4815960;29;86548;-86
2021/04/03 15:09:26;;;;;;;4.63;4.25;;;16.50;34.90;;;;;;4831670;29;87165;-86
2021/04/03 15:11:52;;;;;;;7.03;5.63;;;16.50;35.00;;;;;;4831335;29;88335;-86
2021/04/03 15:14:17;;;;;;;5.30;4.80;;;16.90;35.00;;;;;;4830145;29;87001;-86
2021/04/03 15:16:43;;;;;;;6.15;5.10;;;16.70;35.10;;;;;;4831430;29;86969;-86
2021/04/03 15:19:09;;;;;;;6.13;4.45;;;16.90;34.50;;;;;;4828346;29;87747;-86
2021/04/03 15:21:34;;;;;;;5.15;4.68;;;17.60;33.20;;;;;;4820721;29;87199;-86
2021/04/03 15:24:01;;;;;;;4.95;4.47;;;17.60;33.70;;;;;;4828659;29;87038;-86
2021/04/03 15:26:27;;;;;;;5.30;4.78;;;17.90;33.70;;;;;;4829772;29;88030;-86
2021/04/03 15:28:52;;;;;;;5.13;4.70;;;17.80;32.60;;;;;;4829173;29;87975;-85
2021/04/03 15:31:18;;;;;;;7.15;5.65;;;17.00;31.90;;;;;;4825783;29;87821;-85
2021/04/03 15:33:44;;;;;;;4.90;4.50;;;17.20;32.50;;;;;;4821558;29;87092;-86
2021/04/03 15:36:11;;;;;;;6.50;4.63;;;17.10;33.00;;;;;;4828399;29;87191;-85
2021/04/03 15:38:36;;;;;;;6.05;4.68;;;17.00;33.50;;;;;;4830670;29;86995;-87
2021/04/03 15:41:02;;;;;;;6.10;5.35;;;17.10;33.50;;;;;;4829098;29;87427;-84
2021/04/03 15:43:28;;;;;;;4.70;4.30;;;17.30;33.20;;;;;;4826405;29;86347;-85
2021/04/03 15:45:53;;;;;;;4.78;4.38;;;17.60;33.30;;;;;;4826067;29;87042;-85
2021/04/03 15:48:20;;;;;;;4.50;4.10;;;17.50;32.60;;;;;;4824062;29;86968;-85
2021/04/03 15:50:46;;;;;;;6.03;5.13;;;17.60;33.20;;;;;;4826526;29;88027;-85
2021/04/03 15:53:12;;;;;;;5.00;4.38;;;17.60;32.00;;;;;;4830549;29;86945;-85
2021/04/03 15:55:38;;;;;;;5.22;4.78;;;17.40;32.00;;;;;;4825542;29;87008;-86
2021/04/03 15:58:04;;;;;;;4.70;4.25;;;17.10;31.80;;;;;;4826127;29;89420;-85
2021/04/03 16:00:29;;;;;;;5.75;4.18;;;16.50;32.70;;;;;;4821965;29;87494;-85
2021/04/03 16:02:55;;;;;;;6.53;4.72;;;16.00;33.90;;;;;;4823262;29;87393;-86